sensor_id;sensor_type;location;lat;lon;timestamp;temperature;humidity
25504;DHT22;13410;52.114;5.718;2023-03-04T00:00:11;9.70;99.90
25504;DHT22;13410;52.114;5.718;2023-03-04T00:02:37;9.70;99.90
25504;DHT22;13410;52.114;5.718;2023-03-04T00:05:02;9.50;99.90
25504;DHT22;13410;52.114;5.718;2023-03-04T00:07:28;9.60;99.90
25504;DHT22;13410;52.114;5.718;2023-03-04T00:09:54;9.60;99.90
25504;DHT22;13410;52.114;5.718;2023-03-04T00:12:19;9.90;99.90
25504;DHT22;13410;52.114;5.718;2023-03-04T00:14:45;9.80;99.90
25504;DHT22;13410;52.114;5.718;2023-03-04T00:17:10;9.40;99.90
25504;DHT22;13410;52.114;5.718;2023-03-04T00:19:36;9.40;99.90
25504;DHT22;13410;52.114;5.718;2023-03-04T00:22:03;9.50;99.90
25504;DHT22;13410;52.114;5.718;2023-03-04T00:24:29;9.50;99.90
25504;DHT22;13410;52.114;5.718;2023-03-04T00:26:55;9.30;99.90
25504;DHT22;13410;52.114;5.718;2023-03-04T00:29:20;9.20;99.90
25504;DHT22;13410;52.114;5.718;2023-03-04T00:31:46;9.50;99.90
25504;DHT22;13410;52.114;5.718;2023-03-04T00:34:12;9.40;99.90
25504;DHT22;13410;52.114;5.718;2023-03-04T00:36:37;9.50;99.90
25504;DHT22;13410;52.114;5.718;2023-03-04T00:39:03;9.30;99.90
25504;DHT22;13410;52.114;5.718;2023-03-04T00:41:29;8.90;99.90
25504;DHT22;13410;52.114;5.718;2023-03-04T00:43:54;8.70;99.90
25504;DHT22;13410;52.114;5.718;2023-03-04T00:46:20;9.00;99.90
25504;DHT22;13410;52.114;5.718;2023-03-04T00:48:45;9.20;99.90
25504;DHT22;13410;52.114;5.718;2023-03-04T00:51:11;9.30;99.90
25504;DHT22;13410;52.114;5.718;2023-03-04T00:53:36;9.30;99.90
25504;DHT22;13410;52.114;5.718;2023-03-04T00:56:02;9.30;99.90
25504;DHT22;13410;52.114;5.718;2023-03-04T00:58:28;9.20;99.90
25504;DHT22;13410;52.114;5.718;2023-03-04T01:00:53;9.20;99.90
25504;DHT22;13410;52.114;5.718;2023-03-04T01:03:19;9.20;99.90
25504;DHT22;13410;52.114;5.718;2023-03-04T01:05:45;9.30;99.90
25504;DHT22;13410;52.114;5.718;2023-03-04T01:08:10;9.40;99.90
25504;DHT22;13410;52.114;5.718;2023-03-04T01:10:36;9.50;99.90
25504;DHT22;13410;52.114;5.718;2023-03-04T01:13:01;9.50;99.90
25504;DHT22;13410;52.114;5.718;2023-03-04T01:15:27;9.40;99.90
25504;DHT22;13410;52.114;5.718;2023-03-04T01:17:53;9.40;99.90
25504;DHT22;13410;52.114;5.718;2023-03-04T01:20:19;9.60;99.90
25504;DHT22;13410;52.114;5.718;2023-03-04T01:22:44;9.70;99.90
25504;DHT22;13410;52.114;5.718;2023-03-04T01:25:10;9.30;99.90
25504;DHT22;13410;52.114;5.718;2023-03-04T01:27:36;9.50;99.90
25504;DHT22;13410;52.114;5.718;2023-03-04T01:30:01;9.70;99.90
25504;DHT22;13410;52.114;5.718;2023-03-04T01:32:27;9.70;99.90
25504;DHT22;13410;52.114;5.718;2023-03-04T01:34:53;9.70;99.90
25504;DHT22;13410;52.114;5.718;2023-03-04T01:37:18;9.70;99.90
25504;DHT22;13410;52.114;5.718;2023-03-04T01:39:44;9.60;99.90
25504;DHT22;13410;52.114;5.718;2023-03-04T01:42:20;9.70;99.90
25504;DHT22;13410;52.114;5.718;2023-03-04T01:44:46;9.50;99.90
25504;DHT22;13410;52.114;5.718;2023-03-04T01:47:13;9.40;99.90
25504;DHT22;13410;52.114;5.718;2023-03-04T01:49:39;9.40;99.90
25504;DHT22;13410;52.114;5.718;2023-03-04T01:52:08;9.40;99.90
25504;DHT22;13410;52.114;5.718;2023-03-04T01:54:34;9.60;99.90
25504;DHT22;13410;52.114;5.718;2023-03-04T01:57:00;9.30;99.90
25504;DHT22;13410;52.114;5.718;2023-03-04T01:59:29;9.50;99.90
25504;DHT22;13410;52.114;5.718;2023-03-04T02:01:58;9.50;99.90
25504;DHT22;13410;52.114;5.718;2023-03-04T02:04:27;9.20;99.90
25504;DHT22;13410;52.114;5.718;2023-03-04T02:06:54;9.20;99.90
25504;DHT22;13410;52.114;5.718;2023-03-04T02:09:21;9.30;99.90
25504;DHT22;13410;52.114;5.718;2023-03-04T02:11:48;9.50;99.90
25504;DHT22;13410;52.114;5.718;2023-03-04T02:14:15;9.10;99.90
25504;DHT22;13410;52.114;5.718;2023-03-04T02:16:41;9.10;99.90
25504;DHT22;13410;52.114;5.718;2023-03-04T02:19:15;8.80;99.90
25504;DHT22;13410;52.114;5.718;2023-03-04T02:21:43;8.80;99.90
25504;DHT22;13410;52.114;5.718;2023-03-04T02:26:45;8.90;99.90
25504;DHT22;13410;52.114;5.718;2023-03-04T02:29:13;9.00;99.90
25504;DHT22;13410;52.114;5.718;2023-03-04T02:31:41;9.20;99.90
25504;DHT22;13410;52.114;5.718;2023-03-04T02:34:12;9.30;99.90
25504;DHT22;13410;52.114;5.718;2023-03-04T02:36:38;9.30;99.90
25504;DHT22;13410;52.114;5.718;2023-03-04T02:39:27;9.60;99.90
25504;DHT22;13410;52.114;5.718;2023-03-04T02:41:55;9.60;99.90
25504;DHT22;13410;52.114;5.718;2023-03-04T02:44:22;9.60;99.90
25504;DHT22;13410;52.114;5.718;2023-03-04T02:46:49;9.70;99.90
25504;DHT22;13410;52.114;5.718;2023-03-04T02:49:15;9.60;99.90
25504;DHT22;13410;52.114;5.718;2023-03-04T02:51:41;9.30;99.90
25504;DHT22;13410;52.114;5.718;2023-03-04T02:54:18;9.50;99.90
25504;DHT22;13410;52.114;5.718;2023-03-04T02:56:49;9.60;99.90
25504;DHT22;13410;52.114;5.718;2023-03-04T02:59:15;9.80;99.90
25504;DHT22;13410;52.114;5.718;2023-03-04T03:01:41;9.70;99.90
25504;DHT22;13410;52.114;5.718;2023-03-04T03:04:07;9.50;99.90
25504;DHT22;13410;52.114;5.718;2023-03-04T03:06:32;9.40;99.90
25504;DHT22;13410;52.114;5.718;2023-03-04T03:08:58;9.50;99.90
25504;DHT22;13410;52.114;5.718;2023-03-04T03:11:24;9.30;99.90
25504;DHT22;13410;52.114;5.718;2023-03-04T03:13:49;9.30;99.90
25504;DHT22;13410;52.114;5.718;2023-03-04T03:16:15;9.30;99.90
25504;DHT22;13410;52.114;5.718;2023-03-04T03:18:40;9.40;99.90
25504;DHT22;13410;52.114;5.718;2023-03-04T03:21:06;9.50;99.90
25504;DHT22;13410;52.114;5.718;2023-03-04T03:23:32;9.60;99.90
25504;DHT22;13410;52.114;5.718;2023-03-04T03:25:58;9.50;99.90
25504;DHT22;13410;52.114;5.718;2023-03-04T03:28:24;9.50;99.90
25504;DHT22;13410;52.114;5.718;2023-03-04T03:30:49;9.30;99.90
25504;DHT22;13410;52.114;5.718;2023-03-04T03:33:15;9.30;99.90
25504;DHT22;13410;52.114;5.718;2023-03-04T03:35:40;9.20;99.90
25504;DHT22;13410;52.114;5.718;2023-03-04T03:38:06;9.20;99.90
25504;DHT22;13410;52.114;5.718;2023-03-04T03:40:31;9.30;99.90
25504;DHT22;13410;52.114;5.718;2023-03-04T03:42:57;9.50;99.90
25504;DHT22;13410;52.114;5.718;2023-03-04T03:45:22;9.60;99.90
25504;DHT22;13410;52.114;5.718;2023-03-04T03:47:48;9.50;99.90
25504;DHT22;13410;52.114;5.718;2023-03-04T03:50:13;9.50;99.90
25504;DHT22;13410;52.114;5.718;2023-03-04T03:52:39;9.50;99.90
25504;DHT22;13410;52.114;5.718;2023-03-04T03:55:05;9.60;99.90
25504;DHT22;13410;52.114;5.718;2023-03-04T03:57:31;9.50;99.90
25504;DHT22;13410;52.114;5.718;2023-03-04T03:59:56;9.70;99.90
25504;DHT22;13410;52.114;5.718;2023-03-04T04:02:22;9.70;99.90
25504;DHT22;13410;52.114;5.718;2023-03-04T04:04:48;9.50;99.90
25504;DHT22;13410;52.114;5.718;2023-03-04T04:07:13;9.30;99.90
25504;DHT22;13410;52.114;5.718;2023-03-04T04:09:39;9.30;99.90
25504;DHT22;13410;52.114;5.718;2023-03-04T04:12:05;9.50;99.90
25504;DHT22;13410;52.114;5.718;2023-03-04T04:14:32;9.60;99.90
25504;DHT22;13410;52.114;5.718;2023-03-04T04:16:58;10.00;99.90
25504;DHT22;13410;52.114;5.718;2023-03-04T04:19:23;10.10;99.90
25504;DHT22;13410;52.114;5.718;2023-03-04T04:21:49;10.20;99.90
25504;DHT22;13410;52.114;5.718;2023-03-04T04:24:15;9.90;99.90
25504;DHT22;13410;52.114;5.718;2023-03-04T04:26:41;9.70;99.90
25504;DHT22;13410;52.114;5.718;2023-03-04T04:29:07;9.50;99.90
25504;DHT22;13410;52.114;5.718;2023-03-04T04:31:32;9.20;99.90
25504;DHT22;13410;52.114;5.718;2023-03-04T04:33:58;9.10;99.90
25504;DHT22;13410;52.114;5.718;2023-03-04T04:36:23;9.30;99.90
25504;DHT22;13410;52.114;5.718;2023-03-04T04:38:49;9.30;99.90
25504;DHT22;13410;52.114;5.718;2023-03-04T04:41:27;9.30;99.90
25504;DHT22;13410;52.114;5.718;2023-03-04T04:43:54;9.40;99.90
25504;DHT22;13410;52.114;5.718;2023-03-04T04:46:20;9.50;99.90
25504;DHT22;13410;52.114;5.718;2023-03-04T04:48:46;9.40;99.90
25504;DHT22;13410;52.114;5.718;2023-03-04T04:51:12;9.30;99.90
25504;DHT22;13410;52.114;5.718;2023-03-04T04:53:37;9.20;99.90
25504;DHT22;13410;52.114;5.718;2023-03-04T04:56:18;9.30;99.90
25504;DHT22;13410;52.114;5.718;2023-03-04T04:58:45;9.30;99.90
25504;DHT22;13410;52.114;5.718;2023-03-04T05:01:11;9.10;99.90
25504;DHT22;13410;52.114;5.718;2023-03-04T05:03:37;9.30;99.90
25504;DHT22;13410;52.114;5.718;2023-03-04T05:06:04;9.50;99.90
25504;DHT22;13410;52.114;5.718;2023-03-04T05:08:30;9.50;99.90
25504;DHT22;13410;52.114;5.718;2023-03-04T05:10:56;9.70;99.90
25504;DHT22;13410;52.114;5.718;2023-03-04T05:13:22;9.80;99.90
25504;DHT22;13410;52.114;5.718;2023-03-04T05:15:50;9.90;99.90
25504;DHT22;13410;52.114;5.718;2023-03-04T05:18:16;9.80;99.90
25504;DHT22;13410;52.114;5.718;2023-03-04T05:20:42;9.90;99.90
25504;DHT22;13410;52.114;5.718;2023-03-04T05:23:07;9.90;99.90
25504;DHT22;13410;52.114;5.718;2023-03-04T05:25:33;10.00;99.90
25504;DHT22;13410;52.114;5.718;2023-03-04T05:27:58;9.80;99.90
25504;DHT22;13410;52.114;5.718;2023-03-04T05:30:26;9.80;99.90
25504;DHT22;13410;52.114;5.718;2023-03-04T05:32:52;9.80;99.90
25504;DHT22;13410;52.114;5.718;2023-03-04T05:35:17;9.70;99.90
25504;DHT22;13410;52.114;5.718;2023-03-04T05:37:43;9.90;99.90
25504;DHT22;13410;52.114;5.718;2023-03-04T05:40:09;9.80;99.90
25504;DHT22;13410;52.114;5.718;2023-03-04T05:42:35;9.70;99.90
25504;DHT22;13410;52.114;5.718;2023-03-04T05:45:00;9.70;99.90
25504;DHT22;13410;52.114;5.718;2023-03-04T05:47:26;9.90;99.90
25504;DHT22;13410;52.114;5.718;2023-03-04T05:49:51;10.00;99.90
25504;DHT22;13410;52.114;5.718;2023-03-04T05:52:17;9.80;99.90
25504;DHT22;13410;52.114;5.718;2023-03-04T05:54:42;9.80;99.90
25504;DHT22;13410;52.114;5.718;2023-03-04T05:57:08;10.10;99.90
25504;DHT22;13410;52.114;5.718;2023-03-04T05:59:33;10.10;99.90
25504;DHT22;13410;52.114;5.718;2023-03-04T06:01:59;10.10;99.90
25504;DHT22;13410;52.114;5.718;2023-03-04T06:04:24;10.20;99.90
25504;DHT22;13410;52.114;5.718;2023-03-04T06:06:50;10.10;99.90
25504;DHT22;13410;52.114;5.718;2023-03-04T06:09:15;10.30;99.90
25504;DHT22;13410;52.114;5.718;2023-03-04T06:11:41;10.30;99.90
25504;DHT22;13410;52.114;5.718;2023-03-04T06:14:07;10.30;99.90
25504;DHT22;13410;52.114;5.718;2023-03-04T06:16:32;10.30;99.90
25504;DHT22;13410;52.114;5.718;2023-03-04T06:18:58;10.20;99.90
25504;DHT22;13410;52.114;5.718;2023-03-04T06:21:23;10.40;99.90
25504;DHT22;13410;52.114;5.718;2023-03-04T06:23:49;10.30;99.90
25504;DHT22;13410;52.114;5.718;2023-03-04T06:26:15;10.40;99.90
25504;DHT22;13410;52.114;5.718;2023-03-04T06:28:41;10.50;99.90
25504;DHT22;13410;52.114;5.718;2023-03-04T06:31:07;10.40;99.90
25504;DHT22;13410;52.114;5.718;2023-03-04T06:33:33;10.50;99.90
25504;DHT22;13410;52.114;5.718;2023-03-04T06:35:58;10.60;99.90
25504;DHT22;13410;52.114;5.718;2023-03-04T06:38:25;10.50;99.90
25504;DHT22;13410;52.114;5.718;2023-03-04T06:40:50;10.80;99.90
25504;DHT22;13410;52.114;5.718;2023-03-04T06:43:16;10.60;99.90
25504;DHT22;13410;52.114;5.718;2023-03-04T06:45:42;10.50;99.90
25504;DHT22;13410;52.114;5.718;2023-03-04T06:48:07;10.40;99.90
25504;DHT22;13410;52.114;5.718;2023-03-04T06:50:33;10.40;99.90
25504;DHT22;13410;52.114;5.718;2023-03-04T06:52:59;10.30;99.90
25504;DHT22;13410;52.114;5.718;2023-03-04T06:55:24;10.50;99.90
25504;DHT22;13410;52.114;5.718;2023-03-04T06:57:50;10.30;99.90
25504;DHT22;13410;52.114;5.718;2023-03-04T07:00:16;10.50;99.90
25504;DHT22;13410;52.114;5.718;2023-03-04T07:02:42;10.50;99.90
25504;DHT22;13410;52.114;5.718;2023-03-04T07:05:09;10.40;99.90
25504;DHT22;13410;52.114;5.718;2023-03-04T07:07:35;10.30;99.90
25504;DHT22;13410;52.114;5.718;2023-03-04T07:10:00;10.10;99.90
25504;DHT22;13410;52.114;5.718;2023-03-04T07:12:26;9.80;99.90
25504;DHT22;13410;52.114;5.718;2023-03-04T07:14:51;9.90;99.90
25504;DHT22;13410;52.114;5.718;2023-03-04T07:17:17;10.00;99.90
25504;DHT22;13410;52.114;5.718;2023-03-04T07:19:43;10.00;99.90
25504;DHT22;13410;52.114;5.718;2023-03-04T07:22:09;9.90;99.90
25504;DHT22;13410;52.114;5.718;2023-03-04T07:24:34;10.10;99.90
25504;DHT22;13410;52.114;5.718;2023-03-04T07:27:00;10.10;99.90
25504;DHT22;13410;52.114;5.718;2023-03-04T07:29:25;10.20;99.90
25504;DHT22;13410;52.114;5.718;2023-03-04T07:31:51;10.50;99.90
25504;DHT22;13410;52.114;5.718;2023-03-04T07:34:16;10.40;99.90
25504;DHT22;13410;52.114;5.718;2023-03-04T07:36:43;10.60;99.90
25504;DHT22;13410;52.114;5.718;2023-03-04T07:39:10;10.70;99.90
25504;DHT22;13410;52.114;5.718;2023-03-04T07:41:37;10.70;99.90
25504;DHT22;13410;52.114;5.718;2023-03-04T07:44:05;10.80;99.90
25504;DHT22;13410;52.114;5.718;2023-03-04T07:46:31;10.70;99.90
25504;DHT22;13410;52.114;5.718;2023-03-04T07:48:56;11.00;99.90
25504;DHT22;13410;52.114;5.718;2023-03-04T07:51:23;11.10;99.90
25504;DHT22;13410;52.114;5.718;2023-03-04T07:53:53;11.30;99.90
25504;DHT22;13410;52.114;5.718;2023-03-04T07:56:22;11.30;99.90
25504;DHT22;13410;52.114;5.718;2023-03-04T07:58:49;11.50;99.90
25504;DHT22;13410;52.114;5.718;2023-03-04T08:01:19;11.30;99.90
25504;DHT22;13410;52.114;5.718;2023-03-04T08:03:45;11.20;99.90
25504;DHT22;13410;52.114;5.718;2023-03-04T08:06:13;11.10;99.90
25504;DHT22;13410;52.114;5.718;2023-03-04T08:08:39;11.20;99.90
25504;DHT22;13410;52.114;5.718;2023-03-04T08:11:08;11.20;99.90
25504;DHT22;13410;52.114;5.718;2023-03-04T08:13:34;11.30;99.90
25504;DHT22;13410;52.114;5.718;2023-03-04T08:16:00;11.40;99.90
25504;DHT22;13410;52.114;5.718;2023-03-04T08:18:26;11.50;99.90
25504;DHT22;13410;52.114;5.718;2023-03-04T08:20:52;11.70;99.90
25504;DHT22;13410;52.114;5.718;2023-03-04T08:23:18;11.80;99.90
25504;DHT22;13410;52.114;5.718;2023-03-04T08:25:44;11.90;99.90
25504;DHT22;13410;52.114;5.718;2023-03-04T08:28:10;11.80;99.90
25504;DHT22;13410;52.114;5.718;2023-03-04T08:30:38;11.70;99.90
25504;DHT22;13410;52.114;5.718;2023-03-04T08:33:04;11.60;99.90
25504;DHT22;13410;52.114;5.718;2023-03-04T08:35:30;11.40;99.90
25504;DHT22;13410;52.114;5.718;2023-03-04T08:37:55;11.40;99.90
25504;DHT22;13410;52.114;5.718;2023-03-04T08:40:21;11.60;99.90
25504;DHT22;13410;52.114;5.718;2023-03-04T08:42:47;11.60;99.90
25504;DHT22;13410;52.114;5.718;2023-03-04T08:45:13;11.60;99.90
25504;DHT22;13410;52.114;5.718;2023-03-04T08:47:38;11.90;99.90
25504;DHT22;13410;52.114;5.718;2023-03-04T08:50:06;11.80;99.90
25504;DHT22;13410;52.114;5.718;2023-03-04T08:52:31;11.80;99.90
25504;DHT22;13410;52.114;5.718;2023-03-04T08:54:57;11.80;99.90
25504;DHT22;13410;52.114;5.718;2023-03-04T08:57:23;11.60;99.90
25504;DHT22;13410;52.114;5.718;2023-03-04T08:59:48;11.50;99.90
25504;DHT22;13410;52.114;5.718;2023-03-04T09:02:14;11.40;99.90
25504;DHT22;13410;52.114;5.718;2023-03-04T09:04:39;11.40;99.90
25504;DHT22;13410;52.114;5.718;2023-03-04T09:07:05;11.30;99.90
25504;DHT22;13410;52.114;5.718;2023-03-04T09:09:31;11.00;99.90
25504;DHT22;13410;52.114;5.718;2023-03-04T09:11:57;10.90;99.90
25504;DHT22;13410;52.114;5.718;2023-03-04T09:14:22;10.70;99.90
25504;DHT22;13410;52.114;5.718;2023-03-04T09:16:48;10.80;99.90
25504;DHT22;13410;52.114;5.718;2023-03-04T09:19:14;11.00;99.90
25504;DHT22;13410;52.114;5.718;2023-03-04T09:21:39;11.30;99.90
25504;DHT22;13410;52.114;5.718;2023-03-04T09:24:05;11.10;99.90
25504;DHT22;13410;52.114;5.718;2023-03-04T09:26:30;10.70;99.90
25504;DHT22;13410;52.114;5.718;2023-03-04T09:28:58;10.80;99.90
25504;DHT22;13410;52.114;5.718;2023-03-04T09:31:25;10.90;99.90
25504;DHT22;13410;52.114;5.718;2023-03-04T09:33:51;11.00;99.90
25504;DHT22;13410;52.114;5.718;2023-03-04T09:36:17;11.60;99.90
25504;DHT22;13410;52.114;5.718;2023-03-04T09:38:43;11.70;99.90
25504;DHT22;13410;52.114;5.718;2023-03-04T09:41:17;11.80;99.90
25504;DHT22;13410;52.114;5.718;2023-03-04T09:43:44;11.80;99.90
25504;DHT22;13410;52.114;5.718;2023-03-04T09:46:17;11.70;99.90
25504;DHT22;13410;52.114;5.718;2023-03-04T09:48:51;12.00;99.90
25504;DHT22;13410;52.114;5.718;2023-03-04T09:51:50;12.30;99.90
25504;DHT22;13410;52.114;5.718;2023-03-04T09:54:37;12.60;99.90
25504;DHT22;13410;52.114;5.718;2023-03-04T09:59:58;12.90;99.90
25504;DHT22;13410;52.114;5.718;2023-03-04T10:05:05;12.40;99.90
25504;DHT22;13410;52.114;5.718;2023-03-04T10:07:37;12.10;99.90
25504;DHT22;13410;52.114;5.718;2023-03-04T10:10:13;11.60;99.90
25504;DHT22;13410;52.114;5.718;2023-03-04T10:12:42;11.40;99.90
25504;DHT22;13410;52.114;5.718;2023-03-04T10:18:21;11.70;99.90
25504;DHT22;13410;52.114;5.718;2023-03-04T10:21:00;11.50;99.90
25504;DHT22;13410;52.114;5.718;2023-03-04T10:23:28;11.30;99.90
25504;DHT22;13410;52.114;5.718;2023-03-04T10:25:56;11.50;99.90
25504;DHT22;13410;52.114;5.718;2023-03-04T10:28:25;11.30;99.90
25504;DHT22;13410;52.114;5.718;2023-03-04T10:33:41;11.00;99.90
25504;DHT22;13410;52.114;5.718;2023-03-04T10:38:59;11.40;99.90
25504;DHT22;13410;52.114;5.718;2023-03-04T10:41:27;11.30;99.90
25504;DHT22;13410;52.114;5.718;2023-03-04T10:46:39;11.60;99.90
25504;DHT22;13410;52.114;5.718;2023-03-04T10:49:05;11.80;99.90
25504;DHT22;13410;52.114;5.718;2023-03-04T10:51:31;11.70;99.90
25504;DHT22;13410;52.114;5.718;2023-03-04T10:54:24;11.40;99.90
25504;DHT22;13410;52.114;5.718;2023-03-04T10:57:14;11.50;99.90
25504;DHT22;13410;52.114;5.718;2023-03-04T10:59:56;11.30;99.90
25504;DHT22;13410;52.114;5.718;2023-03-04T11:02:40;11.10;99.90
25504;DHT22;13410;52.114;5.718;2023-03-04T11:08:03;11.20;99.90
25504;DHT22;13410;52.114;5.718;2023-03-04T11:13:16;10.80;99.90
25504;DHT22;13410;52.114;5.718;2023-03-04T11:16:03;10.80;99.90
25504;DHT22;13410;52.114;5.718;2023-03-04T11:21:02;11.30;99.90
25504;DHT22;13410;52.114;5.718;2023-03-04T11:23:42;11.20;99.90
25504;DHT22;13410;52.114;5.718;2023-03-04T11:26:12;11.20;99.90
25504;DHT22;13410;52.114;5.718;2023-03-04T11:31:19;11.70;99.90
25504;DHT22;13410;52.114;5.718;2023-03-04T11:34:07;11.70;99.90
25504;DHT22;13410;52.114;5.718;2023-03-04T11:37:00;11.60;99.90
25504;DHT22;13410;52.114;5.718;2023-03-04T11:39:49;11.50;99.90
25504;DHT22;13410;52.114;5.718;2023-03-04T11:45:00;11.00;99.90
25504;DHT22;13410;52.114;5.718;2023-03-04T12:01:09;11.20;99.90
25504;DHT22;13410;52.114;5.718;2023-03-04T12:09:37;11.70;99.90
25504;DHT22;13410;52.114;5.718;2023-03-04T12:14:44;11.40;99.90
25504;DHT22;13410;52.114;5.718;2023-03-04T12:20:23;11.20;99.90
25504;DHT22;13410;52.114;5.718;2023-03-04T12:23:14;11.00;99.90
25504;DHT22;13410;52.114;5.718;2023-03-04T12:28:25;10.20;99.90
25504;DHT22;13410;52.114;5.718;2023-03-04T12:39:31;10.20;99.90
25504;DHT22;13410;52.114;5.718;2023-03-04T12:45:12;10.50;99.90
25504;DHT22;13410;52.114;5.718;2023-03-04T12:50:38;11.00;99.90
25504;DHT22;13410;52.114;5.718;2023-03-04T12:53:09;11.00;99.90
25504;DHT22;13410;52.114;5.718;2023-03-04T12:55:43;10.90;99.90
25504;DHT22;13410;52.114;5.718;2023-03-04T12:58:19;11.20;99.90
25504;DHT22;13410;52.114;5.718;2023-03-04T13:00:56;11.20;99.90
25504;DHT22;13410;52.114;5.718;2023-03-04T13:06:41;10.70;99.90
25504;DHT22;13410;52.114;5.718;2023-03-04T13:09:20;10.40;99.90
25504;DHT22;13410;52.114;5.718;2023-03-04T13:19:44;10.30;99.90
25504;DHT22;13410;52.114;5.718;2023-03-04T13:22:34;10.70;99.90
25504;DHT22;13410;52.114;5.718;2023-03-04T13:28:14;10.90;99.90
25504;DHT22;13410;52.114;5.718;2023-03-04T13:38:32;11.00;99.90
25504;DHT22;13410;52.114;5.718;2023-03-04T13:53:52;11.30;99.90
25504;DHT22;13410;52.114;5.718;2023-03-04T13:56:41;11.30;99.90
25504;DHT22;13410;52.114;5.718;2023-03-04T14:04:20;11.30;99.90
25504;DHT22;13410;52.114;5.718;2023-03-04T14:06:51;11.40;99.90
25504;DHT22;13410;52.114;5.718;2023-03-04T14:09:24;11.30;99.90
25504;DHT22;13410;52.114;5.718;2023-03-04T14:11:53;11.20;99.90
25504;DHT22;13410;52.114;5.718;2023-03-04T14:14:24;10.90;99.90
25504;DHT22;13410;52.114;5.718;2023-03-04T14:17:02;10.70;99.90
25504;DHT22;13410;52.114;5.718;2023-03-04T14:19:30;10.80;99.90
25504;DHT22;13410;52.114;5.718;2023-03-04T14:21:58;10.70;99.90
25504;DHT22;13410;52.114;5.718;2023-03-04T14:24:25;10.60;99.90
25504;DHT22;13410;52.114;5.718;2023-03-04T14:27:09;10.70;99.90
25504;DHT22;13410;52.114;5.718;2023-03-04T14:29:36;10.70;99.90
25504;DHT22;13410;52.114;5.718;2023-03-04T14:32:03;10.80;99.90
25504;DHT22;13410;52.114;5.718;2023-03-04T14:34:32;10.70;99.90
25504;DHT22;13410;52.114;5.718;2023-03-04T14:36:59;10.70;99.90
25504;DHT22;13410;52.114;5.718;2023-03-04T14:39:28;10.90;99.90
25504;DHT22;13410;52.114;5.718;2023-03-04T14:41:57;11.00;99.90
25504;DHT22;13410;52.114;5.718;2023-03-04T14:44:38;10.90;99.90
25504;DHT22;13410;52.114;5.718;2023-03-04T14:49:43;10.80;99.90
25504;DHT22;13410;52.114;5.718;2023-03-04T14:57:30;10.80;99.90
25504;DHT22;13410;52.114;5.718;2023-03-04T15:00:34;10.80;99.90
25504;DHT22;13410;52.114;5.718;2023-03-04T15:03:20;10.70;99.90
25504;DHT22;13410;52.114;5.718;2023-03-04T15:05:46;10.40;99.90
25504;DHT22;13410;52.114;5.718;2023-03-04T15:08:28;10.30;99.90
25504;DHT22;13410;52.114;5.718;2023-03-04T15:11:00;10.40;99.90
25504;DHT22;13410;52.114;5.718;2023-03-04T15:13:41;10.20;99.90
25504;DHT22;13410;52.114;5.718;2023-03-04T15:16:08;10.20;99.90
25504;DHT22;13410;52.114;5.718;2023-03-04T15:18:34;10.00;99.90
25504;DHT22;13410;52.114;5.718;2023-03-04T15:21:04;10.00;99.90
25504;DHT22;13410;52.114;5.718;2023-03-04T15:23:32;9.80;99.90
25504;DHT22;13410;52.114;5.718;2023-03-04T15:26:02;9.50;99.90
25504;DHT22;13410;52.114;5.718;2023-03-04T15:28:35;9.50;99.90
25504;DHT22;13410;52.114;5.718;2023-03-04T15:31:01;9.30;99.90
25504;DHT22;13410;52.114;5.718;2023-03-04T15:33:28;9.40;99.90
25504;DHT22;13410;52.114;5.718;2023-03-04T15:35:58;9.80;99.90
25504;DHT22;13410;52.114;5.718;2023-03-04T15:38:24;9.80;99.90
25504;DHT22;13410;52.114;5.718;2023-03-04T15:40:51;10.10;99.90
25504;DHT22;13410;52.114;5.718;2023-03-04T15:43:19;10.40;99.90
25504;DHT22;13410;52.114;5.718;2023-03-04T15:45:45;10.70;99.90
25504;DHT22;13410;52.114;5.718;2023-03-04T15:48:13;10.50;99.90
25504;DHT22;13410;52.114;5.718;2023-03-04T15:51:03;10.80;99.90
25504;DHT22;13410;52.114;5.718;2023-03-04T15:53:38;10.80;99.90
25504;DHT22;13410;52.114;5.718;2023-03-04T15:56:10;11.00;99.90
25504;DHT22;13410;52.114;5.718;2023-03-04T15:58:36;10.80;99.90
25504;DHT22;13410;52.114;5.718;2023-03-04T16:01:03;10.60;99.90
25504;DHT22;13410;52.114;5.718;2023-03-04T16:03:29;10.40;99.90
25504;DHT22;13410;52.114;5.718;2023-03-04T16:05:56;10.40;99.90
25504;DHT22;13410;52.114;5.718;2023-03-04T16:08:21;10.10;99.90
25504;DHT22;13410;52.114;5.718;2023-03-04T16:10:49;9.70;99.90
25504;DHT22;13410;52.114;5.718;2023-03-04T16:13:18;9.50;99.90
25504;DHT22;13410;52.114;5.718;2023-03-04T16:15:44;9.60;99.90
25504;DHT22;13410;52.114;5.718;2023-03-04T16:18:11;9.60;99.90
25504;DHT22;13410;52.114;5.718;2023-03-04T16:20:39;9.60;99.90
25504;DHT22;13410;52.114;5.718;2023-03-04T16:23:12;9.30;99.90
25504;DHT22;13410;52.114;5.718;2023-03-04T16:25:37;9.30;99.90
25504;DHT22;13410;52.114;5.718;2023-03-04T16:28:03;9.20;99.90
25504;DHT22;13410;52.114;5.718;2023-03-04T16:30:29;9.20;99.90
25504;DHT22;13410;52.114;5.718;2023-03-04T16:32:55;9.20;99.90
25504;DHT22;13410;52.114;5.718;2023-03-04T16:35:21;9.30;99.90
25504;DHT22;13410;52.114;5.718;2023-03-04T16:37:52;9.20;99.90
25504;DHT22;13410;52.114;5.718;2023-03-04T16:40:27;8.90;99.90
25504;DHT22;13410;52.114;5.718;2023-03-04T16:42:53;8.70;99.90
25504;DHT22;13410;52.114;5.718;2023-03-04T16:45:21;8.80;99.90
25504;DHT22;13410;52.114;5.718;2023-03-04T16:47:48;9.10;99.90
25504;DHT22;13410;52.114;5.718;2023-03-04T16:50:15;9.30;99.90
25504;DHT22;13410;52.114;5.718;2023-03-04T16:52:43;9.50;99.90
25504;DHT22;13410;52.114;5.718;2023-03-04T16:55:20;9.60;99.90
25504;DHT22;13410;52.114;5.718;2023-03-04T16:57:46;9.60;99.90
25504;DHT22;13410;52.114;5.718;2023-03-04T17:00:14;9.40;99.90
25504;DHT22;13410;52.114;5.718;2023-03-04T17:02:42;9.40;99.90
25504;DHT22;13410;52.114;5.718;2023-03-04T17:05:14;9.80;99.90
25504;DHT22;13410;52.114;5.718;2023-03-04T17:07:40;9.90;99.90
25504;DHT22;13410;52.114;5.718;2023-03-04T17:10:06;10.00;99.90
25504;DHT22;13410;52.114;5.718;2023-03-04T17:12:32;10.10;99.90
25504;DHT22;13410;52.114;5.718;2023-03-04T17:14:57;10.10;99.90
25504;DHT22;13410;52.114;5.718;2023-03-04T17:17:23;10.00;99.90
25504;DHT22;13410;52.114;5.718;2023-03-04T17:19:48;10.00;99.90
25504;DHT22;13410;52.114;5.718;2023-03-04T17:22:14;9.90;99.90
25504;DHT22;13410;52.114;5.718;2023-03-04T17:24:40;9.80;99.90
25504;DHT22;13410;52.114;5.718;2023-03-04T17:27:05;9.60;99.90
25504;DHT22;13410;52.114;5.718;2023-03-04T17:29:31;9.40;99.90
25504;DHT22;13410;52.114;5.718;2023-03-04T17:31:56;9.70;99.90
25504;DHT22;13410;52.114;5.718;2023-03-04T17:34:22;9.50;99.90
25504;DHT22;13410;52.114;5.718;2023-03-04T17:36:47;9.30;99.90
25504;DHT22;13410;52.114;5.718;2023-03-04T17:39:13;9.20;99.90
25504;DHT22;13410;52.114;5.718;2023-03-04T17:41:38;9.10;99.90
25504;DHT22;13410;52.114;5.718;2023-03-04T17:44:04;9.30;99.90
25504;DHT22;13410;52.114;5.718;2023-03-04T17:46:30;9.00;99.90